createdAt,value
2023-01-19T00:00:27.583Z,43.85
2023-01-19T00:01:29.335Z,31.00
2023-01-19T00:02:31.065Z,35.42
2023-01-19T00:03:34.666Z,30.27
2023-01-19T00:04:36.364Z,32.83
2023-01-19T00:05:38.162Z,28.98
2023-01-19T00:06:39.861Z,29.17
2023-01-19T00:07:42.170Z,43.67
2023-01-19T00:08:48.815Z,34.65
2023-01-19T00:09:50.769Z,30.90
2023-01-19T00:10:52.562Z,39.72
2023-01-19T00:11:54.518Z,31.65
2023-01-19T00:12:56.254Z,42.42
2023-01-19T00:13:58.923Z,31.88
2023-01-19T00:15:00.659Z,33.53
2023-01-19T00:16:02.580Z,36.10
2023-01-19T00:17:04.376Z,26.17
2023-01-19T00:18:07.632Z,33.78
2023-01-19T00:19:10.785Z,32.40
2023-01-19T00:20:13.730Z,31.42
2023-01-19T00:21:15.929Z,30.80
2023-01-19T00:22:17.690Z,40.28
2023-01-19T00:23:20.472Z,27.77
2023-01-19T00:24:22.263Z,31.77
2023-01-19T00:25:23.980Z,35.45
2023-01-19T00:26:25.723Z,30.23
2023-01-19T00:27:27.406Z,32.85
2023-01-19T00:28:29.153Z,45.63
2023-01-19T00:29:33.554Z,29.35
2023-01-19T00:30:35.249Z,28.55
2023-01-19T00:31:37.422Z,20.63
2023-01-19T00:32:39.308Z,26.65
2023-01-19T00:33:41.024Z,43.80
2023-01-19T00:34:49.578Z,34.33
2023-01-19T00:35:53.135Z,39.45
2023-01-19T00:36:54.850Z,29.02
2023-01-19T00:38:00.137Z,28.15
2023-01-19T00:39:01.971Z,31.13
2023-01-19T00:40:03.934Z,30.75
2023-01-19T00:41:05.795Z,33.90
2023-01-19T00:42:27.057Z,30.60
2023-01-19T00:43:28.823Z,31.27
2023-01-19T00:44:30.495Z,29.73
2023-01-19T00:45:33.609Z,38.83
2023-01-19T00:46:35.382Z,31.92
2023-01-19T00:47:37.385Z,34.28
2023-01-19T00:48:39.152Z,43.92
2023-01-19T00:49:40.907Z,37.85
2023-01-19T00:50:42.628Z,31.55
2023-01-19T00:51:44.365Z,42.00
2023-01-19T00:52:46.428Z,28.70
2023-01-19T00:53:48.184Z,41.55
2023-01-19T00:54:49.938Z,33.75
2023-01-19T00:55:51.749Z,37.10
2023-01-19T00:56:54.245Z,24.63
2023-01-19T00:57:56.249Z,30.77
2023-01-19T00:58:58.057Z,33.95
2023-01-19T00:59:59.841Z,35.05
2023-01-19T01:01:03.904Z,31.58
2023-01-19T01:02:06.086Z,23.90
2023-01-19T01:03:08.139Z,34.22
2023-01-19T01:04:12.363Z,42.95
2023-01-19T01:05:14.407Z,34.60
2023-01-19T01:06:16.172Z,26.60
2023-01-19T01:07:17.930Z,32.20
2023-01-19T01:08:19.724Z,28.80
2023-01-19T01:09:21.493Z,30.90
2023-01-19T01:10:26.677Z,29.17
2023-01-19T01:11:28.487Z,26.33
2023-01-19T01:12:30.307Z,36.15
2023-01-19T01:13:32.538Z,31.70
2023-01-19T01:14:34.552Z,31.05
2023-01-19T01:15:36.318Z,30.92
2023-01-19T01:16:38.255Z,38.53
2023-01-19T01:17:47.040Z,39.17
2023-01-19T01:18:48.853Z,28.67
2023-01-19T01:19:52.077Z,29.55
2023-01-19T01:21:00.425Z,33.58
2023-01-19T01:22:02.204Z,24.52
2023-01-19T01:23:04.629Z,35.65
2023-01-19T01:24:07.298Z,30.40
2023-01-19T01:25:09.402Z,31.77
2023-01-19T01:26:11.234Z,28.05
2023-01-19T01:27:13.439Z,28.13
2023-01-19T01:28:15.291Z,30.00
2023-01-19T01:29:17.401Z,22.92
2023-01-19T01:30:19.907Z,30.77
2023-01-19T01:31:21.697Z,27.20
2023-01-19T01:32:23.426Z,30.02
2023-01-19T01:33:41.026Z,21.73
2023-01-19T01:34:44.025Z,27.50
2023-01-19T01:35:45.903Z,34.17
2023-01-19T01:36:47.584Z,32.83
2023-01-19T01:37:49.414Z,31.10
2023-01-19T01:38:51.126Z,39.67
2023-01-19T01:39:52.903Z,32.90
2023-01-19T01:40:54.632Z,30.58
2023-01-19T01:41:56.330Z,36.92
2023-01-19T01:42:59.815Z,33.80
2023-01-19T01:44:08.387Z,36.95
2023-01-19T01:45:30.820Z,30.90
2023-01-19T01:46:32.565Z,30.65
2023-01-19T01:47:45.393Z,29.65
2023-01-19T01:48:55.041Z,30.40
2023-01-19T01:50:06.688Z,32.45
2023-01-19T01:51:35.160Z,31.15
2023-01-19T01:52:40.931Z,35.88
2023-01-19T01:53:44.714Z,37.63
2023-01-19T01:54:46.516Z,40.33
2023-01-19T01:55:49.786Z,26.73
2023-01-19T01:56:53.810Z,32.65
2023-01-19T01:58:01.388Z,27.20
2023-01-19T01:59:06.863Z,23.98
2023-01-19T02:00:09.399Z,29.27
2023-01-19T02:01:29.998Z,30.65
2023-01-19T02:02:51.664Z,33.85
2023-01-19T02:03:54.635Z,37.85
2023-01-19T02:05:00.938Z,29.00
2023-01-19T02:06:07.306Z,29.67
2023-01-19T02:07:31.047Z,22.02
2023-01-19T02:09:29.322Z,27.55
2023-01-19T02:10:50.286Z,33.13
2023-01-19T02:12:10.830Z,23.13
2023-01-19T02:13:20.110Z,24.67
2023-01-19T02:14:21.853Z,28.42
2023-01-19T02:15:23.550Z,28.42
2023-01-19T02:16:25.360Z,34.17
2023-01-19T02:17:27.420Z,37.17
2023-01-19T02:18:31.195Z,37.13
2023-01-19T02:19:41.086Z,36.17
2023-01-19T02:20:51.281Z,26.98
2023-01-19T02:21:59.900Z,25.45
2023-01-19T02:23:07.017Z,31.73
2023-01-19T02:24:09.610Z,30.73
2023-01-19T02:25:11.427Z,30.45
2023-01-19T02:26:20.522Z,26.00
2023-01-19T02:27:22.412Z,30.40
2023-01-19T02:28:26.129Z,33.13
2023-01-19T02:29:29.010Z,34.03
2023-01-19T02:30:30.961Z,32.55
2023-01-19T02:31:34.444Z,25.98
2023-01-19T02:32:36.169Z,34.17
2023-01-19T02:33:38.228Z,28.35
2023-01-19T02:34:40.062Z,24.40
2023-01-19T02:35:44.352Z,38.40
2023-01-19T02:36:55.350Z,31.92
2023-01-19T02:37:58.814Z,28.38
2023-01-19T02:39:02.205Z,31.38
2023-01-19T02:40:08.163Z,33.53
2023-01-19T02:41:13.393Z,29.50
2023-01-19T02:42:19.816Z,23.55
2023-01-19T02:43:23.958Z,20.77
2023-01-19T02:44:27.907Z,31.50
2023-01-19T02:45:30.469Z,25.70
2023-01-19T02:46:33.055Z,32.38
2023-01-19T02:47:40.090Z,35.42
2023-01-19T02:48:42.898Z,32.35
2023-01-19T02:49:44.609Z,28.65
2023-01-19T02:50:50.686Z,36.88
2023-01-19T02:51:52.658Z,31.38
2023-01-19T02:53:01.729Z,29.80
2023-01-19T02:54:39.134Z,25.63
2023-01-19T02:55:46.212Z,28.92
2023-01-19T02:56:56.987Z,33.03
2023-01-19T02:58:14.116Z,25.95
2023-01-19T02:59:31.194Z,23.77
2023-01-19T03:00:33.041Z,34.17
2023-01-19T03:01:56.021Z,37.28
2023-01-19T03:03:10.836Z,39.38
2023-01-19T03:04:39.513Z,21.40
2023-01-19T03:06:03.252Z,26.58
2023-01-19T03:07:15.565Z,31.20
2023-01-19T03:08:35.954Z,27.55
2023-01-19T03:09:48.732Z,28.65
2023-01-19T03:11:09.309Z,26.67
2023-01-19T03:12:26.024Z,26.80
2023-01-19T03:13:50.149Z,26.88
2023-01-19T03:14:57.331Z,31.35
2023-01-19T03:16:13.140Z,36.40
2023-01-19T03:17:18.205Z,34.33
2023-01-19T03:18:24.857Z,39.92
2023-01-19T03:19:32.014Z,39.83
2023-01-19T03:20:34.135Z,21.30
2023-01-19T03:21:39.989Z,19.98
2023-01-19T03:22:43.288Z,28.02
2023-01-19T03:23:46.739Z,30.77
2023-01-19T03:24:50.776Z,38.65
2023-01-19T03:25:55.753Z,31.38
2023-01-19T03:27:06.632Z,26.83
2023-01-19T03:28:08.799Z,40.50
2023-01-19T03:29:13.700Z,25.13
2023-01-19T03:30:20.518Z,31.90
2023-01-19T03:31:26.255Z,23.98
2023-01-19T03:32:36.329Z,32.60
2023-01-19T03:33:41.866Z,23.58
2023-01-19T03:34:46.897Z,24.00
2023-01-19T03:35:53.207Z,24.77
2023-01-19T03:36:59.539Z,28.33
2023-01-19T03:38:06.238Z,33.65
2023-01-19T03:39:10.964Z,21.30
2023-01-19T03:40:12.868Z,20.75
2023-01-19T03:41:17.873Z,30.52
2023-01-19T03:42:20.739Z,26.63
2023-01-19T03:43:23.897Z,36.00
2023-01-19T03:44:28.810Z,33.33
2023-01-19T03:45:33.599Z,30.52
2023-01-19T03:46:35.381Z,20.80
2023-01-19T03:47:37.486Z,26.55
2023-01-19T03:48:39.502Z,29.70
2023-01-19T03:49:45.334Z,30.90
2023-01-19T03:50:47.772Z,21.10
2023-01-19T03:51:49.622Z,34.00
2023-01-19T03:53:10.060Z,25.67
2023-01-19T03:54:12.239Z,25.75
2023-01-19T03:55:14.104Z,28.70
2023-01-19T03:56:24.622Z,26.33
2023-01-19T03:57:26.449Z,26.27
2023-01-19T03:58:28.499Z,26.35
2023-01-19T03:59:30.259Z,27.00
2023-01-19T04:00:32.704Z,25.27
2023-01-19T04:01:34.503Z,28.77
2023-01-19T04:02:36.226Z,37.70
2023-01-19T04:03:38.036Z,27.42
2023-01-19T04:04:40.274Z,21.80
2023-01-19T04:05:43.149Z,32.28
2023-01-19T04:06:44.909Z,35.28
2023-01-19T04:07:49.302Z,21.38
2023-01-19T04:08:51.984Z,27.45
2023-01-19T04:09:53.739Z,33.15
2023-01-19T04:10:57.727Z,31.02
2023-01-19T04:12:01.658Z,27.70
2023-01-19T04:13:04.579Z,27.73
2023-01-19T04:14:06.372Z,40.50
2023-01-19T04:15:08.489Z,29.08
2023-01-19T04:16:11.344Z,36.97
2023-01-19T04:17:13.158Z,27.73
2023-01-19T04:18:14.929Z,33.75
2023-01-19T04:19:16.627Z,34.10
2023-01-19T04:20:18.507Z,32.75
2023-01-19T04:21:23.203Z,35.78
2023-01-19T04:22:24.920Z,35.05
2023-01-19T04:23:27.101Z,37.17
2023-01-19T04:24:28.863Z,30.55
2023-01-19T04:25:30.704Z,31.60
2023-01-19T04:26:32.431Z,38.42
2023-01-19T04:27:34.163Z,36.10
2023-01-19T04:28:37.300Z,24.55
2023-01-19T04:29:39.019Z,28.45
2023-01-19T04:30:40.789Z,31.60
2023-01-19T04:31:43.224Z,31.90
2023-01-19T04:32:45.113Z,33.70
2023-01-19T04:33:46.842Z,19.95
2023-01-19T04:34:48.572Z,20.65
2023-01-19T04:35:53.439Z,22.95
2023-01-19T04:36:56.176Z,32.95
2023-01-19T04:37:57.882Z,22.52
2023-01-19T04:38:59.560Z,23.42
2023-01-19T04:40:01.290Z,24.48
2023-01-19T04:41:03.103Z,29.67
2023-01-19T04:42:04.918Z,29.88
2023-01-19T04:43:07.571Z,18.67
2023-01-19T04:44:09.295Z,22.60
2023-01-19T04:45:12.458Z,33.65
2023-01-19T04:46:15.055Z,27.52
2023-01-19T04:47:16.812Z,30.60
2023-01-19T04:48:19.169Z,36.88
2023-01-19T04:49:21.590Z,26.48
2023-01-19T04:50:23.391Z,30.77
2023-01-19T04:51:25.198Z,28.95
2023-01-19T04:52:35.151Z,37.80
2023-01-19T04:53:36.971Z,22.50
2023-01-19T04:54:38.694Z,23.38
2023-01-19T04:55:40.779Z,34.05
2023-01-19T04:56:42.506Z,29.85
2023-01-19T04:57:44.604Z,23.70
2023-01-19T04:58:46.361Z,33.72
2023-01-19T04:59:48.053Z,35.55
2023-01-19T05:00:51.309Z,24.55
2023-01-19T05:01:53.230Z,34.63
2023-01-19T05:02:55.049Z,32.60
2023-01-19T05:03:59.767Z,31.42
2023-01-19T05:05:01.758Z,32.47
2023-01-19T05:06:03.642Z,33.88
2023-01-19T05:07:05.345Z,25.73
2023-01-19T05:08:07.106Z,28.00
2023-01-19T05:09:09.252Z,20.15
2023-01-19T05:10:12.061Z,25.60
2023-01-19T05:11:13.808Z,33.80
2023-01-19T05:12:15.911Z,28.48
2023-01-19T05:13:17.680Z,32.42
2023-01-19T05:14:19.416Z,31.10
2023-01-19T05:15:21.662Z,32.70
2023-01-19T05:16:23.648Z,30.15
2023-01-19T05:17:25.769Z,27.42
2023-01-19T05:18:27.589Z,33.10
2023-01-19T05:19:29.615Z,29.70
2023-01-19T05:20:31.451Z,28.00
2023-01-19T05:21:33.155Z,30.20
2023-01-19T05:22:34.978Z,28.63
2023-01-19T05:23:36.711Z,29.63
2023-01-19T05:24:38.421Z,33.47
2023-01-19T05:25:40.160Z,37.58
2023-01-19T05:26:41.952Z,37.03
2023-01-19T05:27:44.814Z,27.83
2023-01-19T05:28:46.576Z,31.88
2023-01-19T05:29:48.288Z,23.55
2023-01-19T05:30:50.348Z,33.20
2023-01-19T05:31:52.249Z,37.78
2023-01-19T05:32:53.976Z,38.00
2023-01-19T05:33:55.687Z,26.15
2023-01-19T05:34:57.387Z,31.70
2023-01-19T05:35:59.110Z,24.00
2023-01-19T05:37:00.890Z,31.25
2023-01-19T05:38:02.599Z,37.00
2023-01-19T05:39:04.720Z,32.08
2023-01-19T05:40:07.311Z,39.10
2023-01-19T05:41:09.128Z,28.83
2023-01-19T05:42:10.804Z,29.95
2023-01-19T05:43:13.177Z,25.70
2023-01-19T05:44:14.926Z,27.35
2023-01-19T05:45:16.665Z,32.70
2023-01-19T05:46:18.382Z,26.08
2023-01-19T05:47:20.155Z,38.00
2023-01-19T05:48:22.085Z,27.67
2023-01-19T05:49:23.852Z,27.90
2023-01-19T05:50:25.857Z,27.73
2023-01-19T05:51:31.983Z,32.90
2023-01-19T05:52:33.745Z,32.28
2023-01-19T05:53:35.464Z,33.15
2023-01-19T05:54:37.282Z,26.13
2023-01-19T05:55:39.346Z,21.17
2023-01-19T05:56:41.353Z,31.95
2023-01-19T05:57:43.515Z,33.78
2023-01-19T05:58:45.257Z,22.95
2023-01-19T05:59:46.996Z,29.60
2023-01-19T06:00:48.707Z,25.33
2023-01-19T06:01:51.845Z,26.65
2023-01-19T06:02:54.130Z,38.47
2023-01-19T06:03:55.953Z,29.73
2023-01-19T06:04:57.758Z,29.02
2023-01-19T06:06:00.381Z,37.67
2023-01-19T06:07:02.467Z,32.20
2023-01-19T06:08:04.289Z,34.15
2023-01-19T06:09:07.956Z,28.90
2023-01-19T06:10:10.309Z,37.08
2023-01-19T06:11:12.323Z,32.20
2023-01-19T06:12:14.271Z,28.70
2023-01-19T06:13:15.999Z,42.72
2023-01-19T06:14:17.800Z,26.38
2023-01-19T06:15:19.963Z,27.42
2023-01-19T06:16:21.744Z,31.00
2023-01-19T06:17:23.469Z,35.85
2023-01-19T06:18:25.203Z,35.05
2023-01-19T06:19:26.978Z,46.10
2023-01-19T06:20:28.703Z,39.20
2023-01-19T06:21:30.428Z,30.75
2023-01-19T06:22:32.225Z,37.17
2023-01-19T06:23:35.798Z,30.73
2023-01-19T06:24:37.721Z,31.55
2023-01-19T06:25:39.440Z,27.13
2023-01-19T06:26:42.350Z,27.15
2023-01-19T06:27:45.452Z,27.42
2023-01-19T06:28:48.707Z,33.50
2023-01-19T06:29:50.431Z,28.95
2023-01-19T06:30:54.101Z,33.13
2023-01-19T06:31:55.987Z,30.55
2023-01-19T06:32:57.970Z,23.08
2023-01-19T06:33:59.835Z,31.55
2023-01-19T06:35:01.641Z,29.33
2023-01-19T06:36:03.839Z,40.25
2023-01-19T06:37:05.532Z,36.15
2023-01-19T06:38:07.341Z,36.67
2023-01-19T06:39:09.824Z,34.42
2023-01-19T06:40:14.494Z,27.52
2023-01-19T06:41:16.503Z,31.00
2023-01-19T06:42:18.213Z,33.47
2023-01-19T06:43:20.793Z,26.23
2023-01-19T06:44:22.550Z,37.22
2023-01-19T06:45:24.239Z,39.95
2023-01-19T06:46:26.381Z,32.75
2023-01-19T06:47:28.075Z,37.40
2023-01-19T06:48:31.853Z,33.53
2023-01-19T06:49:33.827Z,34.80
2023-01-19T06:50:35.643Z,41.10
2023-01-19T06:51:37.393Z,31.48
2023-01-19T06:52:42.516Z,36.30
2023-01-19T06:53:44.438Z,38.53
2023-01-19T06:54:46.919Z,37.13
2023-01-19T06:55:48.646Z,35.63
2023-01-19T06:56:50.343Z,44.67
2023-01-19T06:57:59.283Z,36.72
2023-01-19T06:59:00.975Z,37.35
2023-01-19T07:00:05.704Z,39.00
2023-01-19T07:01:08.077Z,39.53
2023-01-19T07:02:27.964Z,38.80
2023-01-19T07:03:30.459Z,55.08
2023-01-19T07:04:32.206Z,41.17
2023-01-19T07:05:35.955Z,36.50
2023-01-19T07:06:37.698Z,50.35
2023-01-19T07:07:39.906Z,36.83
2023-01-19T07:08:41.711Z,33.42
2023-01-19T07:09:43.442Z,33.63
2023-01-19T07:11:25.200Z,40.75
2023-01-19T07:12:07.947Z,38.38
2023-01-19T07:13:09.675Z,36.85
2023-01-19T07:14:11.873Z,39.80
2023-01-19T07:15:19.618Z,31.38
2023-01-19T07:16:21.466Z,37.35
2023-01-19T07:17:23.199Z,27.73
2023-01-19T07:18:24.902Z,34.95
2023-01-19T07:19:26.572Z,33.35
2023-01-19T07:20:28.286Z,44.72
2023-01-19T07:21:30.388Z,33.25
2023-01-19T07:22:32.123Z,39.75
2023-01-19T07:23:34.139Z,33.58
2023-01-19T07:24:38.070Z,40.80
2023-01-19T07:25:40.248Z,26.95
2023-01-19T07:26:42.449Z,40.80
2023-01-19T07:27:45.117Z,36.33
2023-01-19T07:28:48.359Z,30.90
2023-01-19T07:29:50.083Z,38.95
2023-01-19T07:30:53.479Z,32.13
2023-01-19T07:31:55.329Z,31.55
2023-01-19T07:32:58.345Z,43.88
2023-01-19T07:34:00.437Z,35.45
2023-01-19T07:35:02.293Z,33.70
2023-01-19T07:36:04.153Z,39.33
2023-01-19T07:37:05.914Z,35.55
2023-01-19T07:38:07.626Z,39.30
2023-01-19T07:39:09.339Z,43.85
2023-01-19T07:40:11.873Z,37.63
2023-01-19T07:41:13.972Z,41.15
2023-01-19T07:42:15.892Z,31.23
2023-01-19T07:43:17.600Z,41.55
2023-01-19T07:44:19.282Z,31.95
2023-01-19T07:45:21.946Z,31.33
2023-01-19T07:46:23.741Z,32.63
2023-01-19T07:47:25.499Z,40.92
2023-01-19T07:48:27.906Z,27.60
2023-01-19T07:49:29.605Z,33.13
2023-01-19T07:50:31.550Z,26.70
2023-01-19T07:51:33.266Z,34.75
2023-01-19T07:52:34.951Z,26.25
2023-01-19T07:53:36.781Z,32.88
2023-01-19T07:54:38.583Z,39.40
2023-01-19T07:55:40.291Z,26.98
2023-01-19T07:56:42.030Z,36.47
2023-01-19T07:57:43.787Z,33.17
2023-01-19T07:58:45.517Z,40.75
2023-01-19T07:59:47.250Z,29.00
2023-01-19T08:00:49.090Z,37.90
2023-01-19T08:01:51.184Z,36.13
2023-01-19T08:02:53.930Z,39.72
2023-01-19T08:03:55.822Z,38.78
2023-01-19T08:04:57.539Z,38.00
2023-01-19T08:06:00.045Z,31.13
2023-01-19T08:07:02.115Z,27.88
2023-01-19T08:08:05.637Z,31.92
2023-01-19T08:09:07.632Z,31.98
2023-01-19T08:10:13.263Z,33.13
2023-01-19T08:11:15.996Z,42.88
2023-01-19T08:12:18.417Z,34.05
2023-01-19T08:13:20.263Z,34.10
2023-01-19T08:14:21.976Z,33.50
2023-01-19T08:15:24.910Z,29.90
2023-01-19T08:16:27.927Z,34.65
2023-01-19T08:17:29.640Z,33.95
2023-01-19T08:18:31.340Z,27.40
2023-01-19T08:19:33.075Z,37.58
2023-01-19T08:20:34.792Z,50.80
2023-01-19T08:21:38.473Z,30.30
2023-01-19T08:22:40.187Z,43.58
2023-01-19T08:23:41.963Z,50.33
2023-01-19T08:24:43.734Z,45.13
2023-01-19T08:25:46.168Z,47.90
2023-01-19T08:26:48.031Z,34.80
2023-01-19T08:27:49.769Z,37.45
2023-01-19T08:28:51.513Z,34.30
2023-01-19T08:29:54.515Z,33.45
2023-01-19T08:30:56.377Z,38.63
2023-01-19T08:32:00.291Z,31.65
2023-01-19T08:33:05.111Z,40.70
2023-01-19T08:34:06.968Z,28.50
2023-01-19T08:35:09.077Z,40.13
2023-01-19T08:36:10.781Z,39.25
2023-01-19T08:37:12.684Z,34.70
2023-01-19T08:38:15.208Z,34.17
2023-01-19T08:39:18.146Z,31.35
2023-01-19T08:40:20.342Z,36.05
2023-01-19T08:41:22.501Z,41.80
2023-01-19T08:42:24.194Z,35.67
2023-01-19T08:43:26.087Z,41.97
2023-01-19T08:44:28.156Z,35.85
2023-01-19T08:45:31.223Z,38.60
2023-01-19T08:46:32.953Z,38.95
2023-01-19T08:47:34.670Z,42.83
2023-01-19T08:48:38.183Z,36.90
2023-01-19T08:49:41.409Z,40.25
2023-01-19T08:50:46.807Z,33.17
2023-01-19T08:51:49.191Z,34.97
2023-01-19T08:52:51.391Z,43.63
2023-01-19T08:53:53.107Z,34.67
2023-01-19T08:54:54.868Z,38.53
2023-01-19T08:55:59.955Z,41.67
2023-01-19T08:57:01.752Z,33.38
2023-01-19T08:58:05.385Z,33.88
2023-01-19T09:00:31.525Z,41.92
2023-01-19T09:01:33.315Z,43.17
2023-01-19T09:02:35.255Z,36.72
2023-01-19T09:03:37.410Z,37.03
2023-01-19T09:04:39.126Z,40.88
2023-01-19T09:05:40.993Z,40.72
2023-01-19T09:06:42.806Z,38.83
2023-01-19T09:07:48.063Z,49.35
2023-01-19T09:08:49.902Z,31.90
2023-01-19T09:09:51.684Z,39.55
2023-01-19T09:10:53.388Z,41.13
2023-01-19T09:11:55.876Z,38.10
2023-01-19T09:12:58.143Z,36.83
2023-01-19T09:13:59.987Z,39.35
2023-01-19T09:15:01.796Z,34.33
2023-01-19T09:16:04.010Z,39.47
2023-01-19T09:17:07.031Z,34.63
2023-01-19T09:18:16.185Z,41.17
2023-01-19T09:19:18.419Z,34.53
2023-01-19T09:20:20.104Z,48.63
2023-01-19T09:21:21.865Z,34.72
2023-01-19T09:22:23.589Z,30.33
2023-01-19T09:23:25.555Z,36.20
2023-01-19T09:24:27.287Z,39.70
2023-01-19T09:25:29.036Z,36.30
2023-01-19T09:26:33.071Z,32.50
2023-01-19T09:27:35.196Z,46.00
2023-01-19T09:28:38.225Z,34.45
2023-01-19T09:29:39.911Z,40.33
2023-01-19T09:30:43.206Z,49.53
2023-01-19T09:31:45.775Z,39.55
2023-01-19T09:32:47.594Z,37.95
2023-01-19T09:33:49.371Z,53.70
2023-01-19T09:34:51.276Z,44.28
2023-01-19T09:35:53.123Z,47.35
2023-01-19T09:36:54.966Z,43.25
2023-01-19T09:37:56.656Z,33.67
2023-01-19T09:38:58.371Z,43.35
2023-01-19T09:40:00.150Z,35.63
2023-01-19T09:41:01.964Z,36.78
2023-01-19T09:42:24.577Z,48.10
2023-01-19T09:43:45.539Z,33.65
2023-01-19T09:44:50.635Z,45.35
2023-01-19T09:45:54.251Z,34.85
2023-01-19T09:46:56.036Z,35.10
2023-01-19T09:48:02.784Z,50.95
2023-01-19T09:49:33.586Z,42.53
2023-01-19T09:50:39.951Z,37.38
2023-01-19T09:51:46.383Z,44.35
2023-01-19T09:52:57.295Z,50.05
2023-01-19T09:55:26.332Z,41.25
2023-01-19T09:56:29.711Z,45.17
2023-01-19T09:57:32.511Z,33.42
2023-01-19T09:58:34.275Z,44.90
2023-01-19T09:59:37.284Z,40.78
2023-01-19T10:00:39.527Z,39.00
2023-01-19T10:01:54.625Z,41.35
2023-01-19T10:03:04.022Z,41.50
2023-01-19T10:04:14.501Z,34.10
2023-01-19T10:05:42.208Z,48.10
2023-01-19T10:06:44.329Z,44.80
2023-01-19T10:07:54.741Z,41.33
2023-01-19T10:09:15.406Z,50.60
2023-01-19T10:10:31.943Z,38.28
2023-01-19T10:11:52.679Z,46.47
2023-01-19T10:13:59.867Z,35.55
2023-01-19T10:15:25.048Z,43.63
2023-01-19T10:16:51.018Z,44.28
2023-01-19T10:18:01.101Z,50.05
2023-01-19T10:19:24.062Z,37.33
2023-01-19T10:20:37.879Z,34.95
2023-01-19T10:21:43.668Z,37.35
2023-01-19T10:22:50.626Z,43.03
2023-01-19T10:23:59.983Z,46.03
2023-01-19T10:25:07.298Z,50.65
2023-01-19T10:26:16.682Z,43.03
2023-01-19T10:27:24.016Z,37.65
2023-01-19T10:28:27.288Z,40.58
2023-01-19T10:29:36.325Z,31.98
2023-01-19T10:30:38.237Z,36.40
2023-01-19T10:31:42.322Z,33.38
2023-01-19T10:32:44.638Z,46.53
2023-01-19T10:33:46.557Z,48.85
2023-01-19T10:34:49.831Z,43.47
2023-01-19T10:35:51.667Z,34.20
2023-01-19T10:37:02.184Z,39.50
2023-01-19T10:38:04.385Z,39.55
2023-01-19T10:39:08.050Z,40.17
2023-01-19T10:40:09.728Z,35.78
2023-01-19T10:41:34.994Z,41.72
2023-01-19T10:42:39.007Z,44.60
2023-01-19T10:43:43.548Z,29.75
2023-01-19T10:44:46.067Z,38.88
2023-01-19T10:45:50.999Z,29.10
2023-01-19T10:46:58.382Z,42.03
2023-01-19T10:48:07.390Z,39.88
2023-01-19T10:49:30.112Z,37.67
2023-01-19T10:50:34.906Z,34.15
2023-01-19T10:51:48.577Z,39.05
2023-01-19T10:52:53.972Z,32.95
2023-01-19T10:53:58.875Z,36.20
2023-01-19T10:55:03.043Z,27.05
2023-01-19T10:56:17.848Z,26.38
2023-01-19T10:57:32.583Z,28.13
2023-01-19T10:58:35.400Z,24.70
2023-01-19T10:59:51.323Z,29.30
2023-01-19T11:00:53.171Z,33.55
2023-01-19T11:02:13.451Z,30.95
2023-01-19T11:03:21.585Z,20.73
2023-01-19T11:04:29.605Z,30.17
2023-01-19T11:05:33.884Z,29.38
2023-01-19T11:06:35.932Z,26.60
2023-01-19T11:07:37.680Z,35.42
2023-01-19T11:08:39.620Z,32.10
2023-01-19T11:09:41.338Z,18.85
2023-01-19T11:10:53.220Z,27.50
2023-01-19T11:11:55.829Z,23.85
2023-01-19T11:13:03.980Z,33.53
2023-01-19T11:14:15.083Z,31.63
2023-01-19T11:15:23.136Z,35.55
2023-01-19T11:16:30.921Z,24.15
2023-01-19T11:17:33.931Z,29.73
2023-01-19T11:18:40.060Z,32.67
2023-01-19T11:19:41.806Z,24.55
2023-01-19T11:20:52.853Z,30.50
2023-01-19T11:22:24.889Z,32.80
2023-01-19T11:23:30.467Z,26.50
2023-01-19T11:24:32.204Z,29.50
2023-01-19T11:25:36.074Z,25.20
2023-01-19T11:26:48.055Z,32.90
2023-01-19T11:27:52.178Z,19.85
2023-01-19T11:28:56.573Z,20.92
2023-01-19T11:30:10.545Z,18.27
2023-01-19T11:31:15.133Z,16.25
2023-01-19T11:32:22.471Z,20.23
2023-01-19T11:33:34.932Z,21.02
2023-01-19T11:34:38.997Z,19.48
2023-01-19T11:35:41.728Z,25.23
2023-01-19T11:37:13.693Z,20.38
2023-01-19T11:38:23.251Z,37.90
2023-01-19T11:39:28.502Z,18.13
2023-01-19T11:40:31.411Z,22.92
2023-01-19T11:41:38.471Z,21.17
2023-01-19T11:42:40.232Z,21.13
2023-01-19T11:43:48.914Z,28.77
2023-01-19T11:45:12.717Z,24.80
2023-01-19T11:46:15.375Z,20.75
2023-01-19T11:47:32.476Z,22.70
2023-01-19T11:48:39.610Z,18.05
2023-01-19T11:49:56.133Z,16.38
2023-01-19T11:51:01.639Z,20.38
2023-01-19T11:52:33.769Z,18.40
2023-01-19T11:53:36.251Z,14.52
2023-01-19T11:54:52.333Z,17.70
2023-01-19T11:56:06.859Z,24.55
2023-01-19T11:57:17.183Z,24.55
2023-01-19T11:58:20.142Z,15.77
2023-01-19T11:59:25.026Z,12.07
2023-01-19T12:00:36.921Z,14.07
2023-01-19T12:01:46.529Z,17.17
2023-01-19T12:02:53.185Z,12.45
2023-01-19T12:04:05.605Z,14.95
2023-01-19T12:05:15.083Z,14.85
2023-01-19T12:06:24.560Z,14.73
2023-01-19T12:07:31.118Z,17.98
2023-01-19T12:08:45.427Z,14.20
2023-01-19T12:09:51.700Z,17.52
2023-01-19T12:10:56.015Z,14.45
2023-01-19T12:12:04.280Z,14.63
2023-01-19T12:13:06.070Z,14.32
2023-01-19T12:14:18.096Z,20.60
2023-01-19T12:15:42.842Z,15.00
2023-01-19T12:16:46.541Z,19.67
2023-01-19T12:17:54.523Z,15.93
2023-01-19T12:19:18.180Z,13.90
2023-01-19T12:20:47.154Z,14.73
2023-01-19T12:21:49.923Z,11.85
2023-01-19T12:23:11.653Z,9.60
2023-01-19T12:24:18.208Z,11.38
2023-01-19T12:25:24.944Z,17.73
2023-01-19T12:26:38.419Z,9.85
2023-01-19T12:27:42.812Z,15.77
2023-01-19T12:28:47.492Z,9.32
2023-01-19T12:29:50.479Z,12.00
2023-01-19T12:30:52.463Z,13.93
2023-01-19T12:32:13.117Z,11.57
2023-01-19T12:33:36.948Z,12.68
2023-01-19T12:34:44.242Z,12.35
2023-01-19T12:36:09.202Z,9.88
2023-01-19T12:37:41.791Z,8.07
2023-01-19T12:39:12.591Z,16.15
2023-01-19T12:40:35.274Z,6.82
2023-01-19T12:41:38.564Z,8.85
2023-01-19T12:42:46.818Z,6.97
2023-01-19T12:44:09.826Z,10.60
2023-01-19T12:45:21.372Z,10.05
2023-01-19T12:46:31.349Z,8.73
2023-01-19T12:47:33.751Z,8.25
2023-01-19T12:48:35.537Z,6.00
2023-01-19T12:49:47.635Z,9.63
2023-01-19T12:50:49.387Z,9.40
2023-01-19T12:51:53.785Z,11.02
2023-01-19T12:52:58.746Z,11.07
2023-01-19T12:54:05.298Z,8.20
2023-01-19T12:55:07.363Z,8.70
2023-01-19T12:56:17.287Z,13.18
2023-01-19T12:57:37.372Z,6.03
2023-01-19T12:58:39.145Z,7.88
2023-01-19T12:59:41.024Z,6.75
2023-01-19T13:00:45.188Z,8.45
2023-01-19T13:02:18.541Z,5.90
2023-01-19T13:03:20.170Z,8.30
2023-01-19T13:04:33.269Z,7.22
2023-01-19T13:05:41.087Z,7.85
2023-01-19T13:06:49.057Z,9.93
2023-01-19T13:08:03.093Z,11.15
2023-01-19T13:09:34.740Z,10.70
2023-01-19T13:12:14.986Z,9.57
2023-01-19T13:13:32.651Z,8.45
2023-01-19T13:14:37.165Z,8.73
2023-01-19T13:15:39.483Z,7.38
2023-01-19T13:16:41.298Z,8.55
2023-01-19T13:17:51.168Z,5.53
2023-01-19T13:19:08.643Z,7.72
2023-01-19T13:20:31.869Z,6.30
2023-01-19T13:21:36.564Z,11.70
2023-01-19T13:22:49.658Z,6.90
2023-01-19T13:23:56.939Z,9.18
2023-01-19T13:25:14.079Z,6.25
2023-01-19T13:26:18.516Z,10.05
2023-01-19T13:27:20.264Z,10.60
2023-01-19T13:28:31.037Z,8.50
2023-01-19T13:29:40.530Z,6.40
2023-01-19T13:30:54.301Z,9.90
2023-01-19T13:32:02.626Z,10.38
2023-01-19T13:33:15.469Z,10.63
2023-01-19T13:34:24.959Z,10.25
2023-01-19T13:35:26.690Z,6.07
2023-01-19T13:36:33.582Z,7.43
2023-01-19T13:37:44.541Z,8.90
2023-01-19T13:38:47.912Z,13.60
2023-01-19T13:39:53.880Z,9.38
2023-01-19T13:40:59.991Z,12.07
2023-01-19T13:42:06.236Z,10.40
2023-01-19T13:43:18.028Z,10.55
2023-01-19T13:44:42.223Z,7.72
2023-01-19T13:45:51.178Z,12.07
2023-01-19T13:46:56.545Z,10.20
2023-01-19T13:48:01.532Z,10.55
2023-01-19T13:49:29.792Z,4.85
2023-01-19T13:50:35.893Z,12.18
2023-01-19T13:51:37.603Z,7.43
2023-01-19T13:52:43.584Z,8.63
2023-01-19T13:53:59.242Z,10.43
2023-01-19T13:55:03.806Z,10.20
2023-01-19T13:56:09.927Z,11.05
2023-01-19T13:57:32.983Z,7.55
2023-01-19T13:58:34.930Z,9.63
2023-01-19T13:59:36.658Z,8.15
2023-01-19T14:00:38.669Z,6.95
2023-01-19T14:01:44.675Z,7.32
2023-01-19T14:03:01.778Z,8.27
2023-01-19T14:04:04.052Z,12.80
2023-01-19T14:05:16.059Z,10.90
2023-01-19T14:06:44.899Z,9.30
2023-01-19T14:07:46.841Z,12.57
2023-01-19T14:09:06.163Z,8.88
2023-01-19T14:10:14.376Z,11.25
2023-01-19T14:11:16.084Z,10.68